createdAt,value
2022-09-06T00:00:02.767Z,2.03
2022-09-06T00:01:10.946Z,2.50
2022-09-06T00:02:12.657Z,2.20
2022-09-06T00:03:14.592Z,2.20
2022-09-06T00:04:16.438Z,2.13
2022-09-06T00:05:18.466Z,2.53
2022-09-06T00:06:20.896Z,2.30
2022-09-06T00:07:22.618Z,2.10
2022-09-06T00:08:24.353Z,2.20
2022-09-06T00:09:26.317Z,2.30
2022-09-06T00:10:29.268Z,2.28
2022-09-06T00:11:31.189Z,2.20
2022-09-06T00:12:33.367Z,2.42
2022-09-06T00:13:35.719Z,2.15
2022-09-06T00:14:37.608Z,2.45
2022-09-06T00:15:40.039Z,2.15
2022-09-06T00:16:41.941Z,2.03
2022-09-06T00:17:45.474Z,2.45
2022-09-06T00:18:47.411Z,2.05
2022-09-06T00:19:49.129Z,2.10
2022-09-06T00:20:50.858Z,2.15
2022-09-06T00:21:52.609Z,2.03
2022-09-06T00:23:02.836Z,2.10
2022-09-06T00:24:04.678Z,2.17
2022-09-06T00:25:07.643Z,2.30
2022-09-06T00:26:09.416Z,2.60
2022-09-06T00:27:11.158Z,2.47
2022-09-06T00:28:12.942Z,2.20
2022-09-06T00:29:14.666Z,2.53
2022-09-06T00:30:16.522Z,2.30
2022-09-06T00:31:21.300Z,2.10
2022-09-06T00:32:23.410Z,2.08
2022-09-06T00:33:25.330Z,2.50
2022-09-06T00:34:27.701Z,2.50
2022-09-06T00:35:29.767Z,2.95
2022-09-06T00:36:31.795Z,2.22
2022-09-06T00:37:33.499Z,2.53
2022-09-06T00:38:35.712Z,2.40
2022-09-06T00:39:37.430Z,2.53
2022-09-06T00:40:39.503Z,2.05
2022-09-06T00:41:41.240Z,2.83
2022-09-06T00:42:43.046Z,2.45
2022-09-06T00:43:45.067Z,2.17
2022-09-06T00:44:47.797Z,2.20
2022-09-06T00:45:49.820Z,2.78
2022-09-06T00:46:54.427Z,2.15
2022-09-06T00:47:58.501Z,2.58
2022-09-06T00:49:05.880Z,2.42
2022-09-06T00:50:08.872Z,2.30
2022-09-06T00:51:12.639Z,2.72
2022-09-06T00:52:16.968Z,2.42
2022-09-06T00:53:19.721Z,2.55
2022-09-06T00:54:21.943Z,2.83
2022-09-06T00:55:26.336Z,2.30
2022-09-06T00:56:28.734Z,2.30
2022-09-06T00:57:32.303Z,2.20
2022-09-06T00:58:34.557Z,2.42
2022-09-06T00:59:39.333Z,2.22
2022-09-06T01:00:41.230Z,2.40
2022-09-06T01:01:43.318Z,2.28
2022-09-06T01:02:45.427Z,2.45
2022-09-06T01:03:47.446Z,2.40
2022-09-06T01:04:49.878Z,2.22
2022-09-06T01:06:18.452Z,2.45
2022-09-06T01:07:23.364Z,2.35
2022-09-06T01:08:38.649Z,2.50
2022-09-06T01:10:19.100Z,2.50
2022-09-06T01:11:45.855Z,2.33
2022-09-06T01:13:25.547Z,2.58
2022-09-06T01:15:01.864Z,2.35
2022-09-06T01:16:22.069Z,2.63
2022-09-06T01:17:33.101Z,2.63
2022-09-06T01:18:46.763Z,2.50
2022-09-06T01:20:33.771Z,2.53
2022-09-06T01:21:52.547Z,2.33
2022-09-06T01:23:09.523Z,2.78
2022-09-06T01:25:02.201Z,2.38
2022-09-06T01:26:25.606Z,2.60
2022-09-06T01:27:44.582Z,2.45
2022-09-06T01:28:47.530Z,2.40
2022-09-06T01:30:02.228Z,2.40
2022-09-06T01:31:25.670Z,2.78
2022-09-06T01:32:50.522Z,2.63
2022-09-06T01:34:17.264Z,2.30
2022-09-06T01:35:33.997Z,2.28
2022-09-06T01:37:08.921Z,2.55
2022-09-06T01:38:11.592Z,2.35
2022-09-06T01:39:23.184Z,2.40
2022-09-06T01:40:25.033Z,2.47
2022-09-06T01:41:27.587Z,2.20
2022-09-06T01:42:33.258Z,2.42
2022-09-06T01:43:40.339Z,2.63
2022-09-06T01:44:51.972Z,2.63
2022-09-06T01:46:02.693Z,2.55
2022-09-06T01:47:16.428Z,2.72
2022-09-06T01:48:36.646Z,2.35
2022-09-06T01:50:02.964Z,2.65
2022-09-06T01:51:32.373Z,2.80
2022-09-06T01:52:42.928Z,2.45
2022-09-06T01:54:18.011Z,2.22
2022-09-06T01:55:38.184Z,2.45
2022-09-06T01:57:22.800Z,2.53
2022-09-06T01:58:58.643Z,2.63
2022-09-06T02:00:09.429Z,2.42
2022-09-06T02:01:19.440Z,2.55
2022-09-06T02:02:38.745Z,2.70
2022-09-06T02:03:52.758Z,2.65
2022-09-06T02:05:04.909Z,2.22
2022-09-06T02:06:22.477Z,2.97
2022-09-06T02:07:27.854Z,2.78
2022-09-06T02:08:47.380Z,2.72
2022-09-06T02:09:55.333Z,2.30
2022-09-06T02:11:07.334Z,2.92
2022-09-06T02:12:13.396Z,2.80
2022-09-06T02:13:18.371Z,2.72
2022-09-06T02:14:28.881Z,2.92
2022-09-06T02:15:35.120Z,3.17
2022-09-06T02:16:41.063Z,2.83
2022-09-06T02:17:53.713Z,3.00
2022-09-06T02:19:09.609Z,2.80
2022-09-06T02:20:24.917Z,3.13
2022-09-06T02:21:33.023Z,3.03
2022-09-06T02:22:40.307Z,2.83
2022-09-06T02:23:44.413Z,2.80
2022-09-06T02:24:50.291Z,3.08
2022-09-06T02:26:00.543Z,2.90
2022-09-06T02:27:02.271Z,2.90
2022-09-06T02:28:05.684Z,2.80
2022-09-06T02:29:08.065Z,3.10
2022-09-06T02:30:10.841Z,2.95
2022-09-06T02:31:24.208Z,2.85
2022-09-06T02:32:29.245Z,2.83
2022-09-06T02:33:33.399Z,3.33
2022-09-06T02:34:40.165Z,3.30
2022-09-06T02:35:45.115Z,3.22
2022-09-06T02:36:47.771Z,2.92
2022-09-06T02:37:50.127Z,3.08
2022-09-06T02:38:52.056Z,3.28
2022-09-06T02:39:56.156Z,3.47
2022-09-06T02:40:58.696Z,2.70
2022-09-06T02:42:01.767Z,3.20
2022-09-06T02:43:03.569Z,3.38
2022-09-06T02:44:05.369Z,3.05
2022-09-06T02:45:07.903Z,3.10
2022-09-06T02:46:10.003Z,3.03
2022-09-06T02:47:11.914Z,3.22
2022-09-06T02:48:14.638Z,3.22
2022-09-06T02:49:16.379Z,3.03
2022-09-06T02:50:18.267Z,3.00
2022-09-06T02:51:20.790Z,3.00
2022-09-06T02:52:22.537Z,3.22
2022-09-06T02:53:24.248Z,3.13
2022-09-06T02:54:26.178Z,3.10
2022-09-06T02:55:27.893Z,3.10
2022-09-06T02:56:29.633Z,2.97
2022-09-06T02:57:31.350Z,3.00
2022-09-06T02:58:33.065Z,3.10
2022-09-06T02:59:34.860Z,3.05
2022-09-06T03:00:37.628Z,3.10
2022-09-06T03:01:39.412Z,3.35
2022-09-06T03:02:41.190Z,3.28
2022-09-06T03:03:43.020Z,3.42
2022-09-06T03:04:44.967Z,3.00
2022-09-06T03:05:49.856Z,3.22
2022-09-06T03:06:51.607Z,3.00
2022-09-06T03:07:54.586Z,3.15
2022-09-06T03:08:56.399Z,3.08
2022-09-06T03:09:58.450Z,2.83
2022-09-06T03:11:01.031Z,2.92
2022-09-06T03:12:02.957Z,3.50
2022-09-06T03:13:04.678Z,2.90
2022-09-06T03:14:06.405Z,3.45
2022-09-06T03:15:08.633Z,3.35
2022-09-06T03:16:10.667Z,3.58
2022-09-06T03:17:12.455Z,3.60
2022-09-06T03:18:14.937Z,3.38
2022-09-06T03:19:18.058Z,3.58
2022-09-06T03:20:22.788Z,3.10
2022-09-06T03:21:24.731Z,3.40
2022-09-06T03:22:26.475Z,3.38
2022-09-06T03:23:29.812Z,3.20
2022-09-06T03:24:31.510Z,3.45
2022-09-06T03:25:33.441Z,3.88
2022-09-06T03:26:35.574Z,3.90
2022-09-06T03:27:38.284Z,3.97
2022-09-06T03:28:40.340Z,3.42
2022-09-06T03:29:42.070Z,3.45
2022-09-06T03:30:48.426Z,3.15
2022-09-06T03:31:50.281Z,3.83
2022-09-06T03:32:51.985Z,3.30
2022-09-06T03:33:53.702Z,3.67
2022-09-06T03:34:55.410Z,3.45
2022-09-06T03:36:00.560Z,3.97
2022-09-06T03:37:02.302Z,3.13
2022-09-06T03:38:04.040Z,3.55
2022-09-06T03:39:06.806Z,4.00
2022-09-06T03:40:09.411Z,3.88
2022-09-06T03:41:11.194Z,4.15
2022-09-06T03:42:12.937Z,4.30
2022-09-06T03:43:15.752Z,4.00
2022-09-06T03:44:17.458Z,3.88
2022-09-06T03:45:19.196Z,4.28
2022-09-06T03:46:21.011Z,3.78
2022-09-06T03:47:22.834Z,4.05
2022-09-06T03:48:26.841Z,3.95
2022-09-06T03:49:28.639Z,4.00
2022-09-06T03:50:30.380Z,4.22
2022-09-06T03:51:32.375Z,4.55
2022-09-06T03:52:34.173Z,4.10
2022-09-06T03:53:35.941Z,4.32
2022-09-06T03:54:37.754Z,4.40
2022-09-06T03:55:39.893Z,4.25
2022-09-06T03:56:41.632Z,3.63
2022-09-06T03:57:43.401Z,3.90
2022-09-06T03:58:45.331Z,4.13
2022-09-06T03:59:47.105Z,4.10
2022-09-06T04:00:48.982Z,3.85
2022-09-06T04:01:50.758Z,4.15
2022-09-06T04:02:52.480Z,3.85
2022-09-06T04:03:54.218Z,3.85
2022-09-06T04:04:56.003Z,3.63
2022-09-06T04:05:57.982Z,3.65
2022-09-06T04:06:59.743Z,3.45
2022-09-06T04:08:02.492Z,3.60
2022-09-06T04:09:04.763Z,3.42
2022-09-06T04:10:07.134Z,3.60
2022-09-06T04:11:08.927Z,3.50
2022-09-06T04:12:10.656Z,3.40
2022-09-06T04:13:12.378Z,3.95
2022-09-06T04:14:14.342Z,3.63
2022-09-06T04:15:16.211Z,3.63
2022-09-06T04:16:18.840Z,3.28
2022-09-06T04:17:20.687Z,3.25
2022-09-06T04:18:22.893Z,3.80
2022-09-06T04:19:24.667Z,3.78
2022-09-06T04:20:26.585Z,3.50
2022-09-06T04:21:28.394Z,3.33
2022-09-06T04:22:30.600Z,3.83
2022-09-06T04:23:34.338Z,2.97
2022-09-06T04:24:39.462Z,2.90
2022-09-06T04:25:41.240Z,3.00
2022-09-06T04:26:42.976Z,3.00
2022-09-06T04:27:44.685Z,3.10
2022-09-06T04:28:46.573Z,3.78
2022-09-06T04:29:48.360Z,3.20
2022-09-06T04:31:04.713Z,2.67
2022-09-06T04:32:07.121Z,3.13
2022-09-06T04:33:08.947Z,2.83
2022-09-06T04:34:10.906Z,2.47
2022-09-06T04:35:12.623Z,2.58
2022-09-06T04:36:14.343Z,2.50
2022-09-06T04:37:20.137Z,2.75
2022-09-06T04:38:22.126Z,2.58
2022-09-06T04:39:24.375Z,2.72
2022-09-06T04:40:26.161Z,2.65
2022-09-06T04:41:27.939Z,2.78
2022-09-06T04:42:29.959Z,2.80
2022-09-06T04:43:32.274Z,2.85
2022-09-06T04:44:33.993Z,2.90
2022-09-06T04:45:35.776Z,2.90
2022-09-06T04:46:37.604Z,3.08
2022-09-06T04:47:39.324Z,2.95
2022-09-06T04:48:41.159Z,2.60
2022-09-06T04:49:43.229Z,2.30
2022-09-06T04:50:45.144Z,2.60
2022-09-06T04:51:46.900Z,2.75
2022-09-06T04:52:48.788Z,2.40
2022-09-06T04:53:51.156Z,2.67
2022-09-06T04:54:52.879Z,2.90
2022-09-06T04:55:57.784Z,2.90
2022-09-06T04:56:59.517Z,2.92
2022-09-06T04:58:01.826Z,3.35
2022-09-06T04:59:03.615Z,2.78
2022-09-06T05:00:06.288Z,2.90
2022-09-06T05:01:08.066Z,3.22
2022-09-06T05:02:09.878Z,3.03
2022-09-06T05:03:11.625Z,2.80
2022-09-06T05:04:13.350Z,2.90
2022-09-06T05:05:15.255Z,3.00
2022-09-06T05:06:23.204Z,2.72
2022-09-06T05:07:24.972Z,2.88
2022-09-06T05:08:26.930Z,2.65
2022-09-06T05:09:28.812Z,3.05
2022-09-06T05:10:31.092Z,2.90
2022-09-06T05:11:32.876Z,3.05
2022-09-06T05:12:35.086Z,2.55
2022-09-06T05:13:36.981Z,2.80
2022-09-06T05:14:38.688Z,2.63
2022-09-06T05:15:40.467Z,2.85
2022-09-06T05:16:42.343Z,2.67
2022-09-06T05:17:44.331Z,2.58
2022-09-06T05:18:46.169Z,2.78
2022-09-06T05:19:48.542Z,2.45
2022-09-06T05:20:53.933Z,2.50
2022-09-06T05:21:55.639Z,2.60
2022-09-06T05:22:57.429Z,2.40
2022-09-06T05:23:59.211Z,2.45
2022-09-06T05:25:01.173Z,2.80
2022-09-06T05:26:03.801Z,2.22
2022-09-06T05:27:05.666Z,2.13
2022-09-06T05:28:07.509Z,2.13
2022-09-06T05:29:09.276Z,2.40
2022-09-06T05:30:11.535Z,2.35
2022-09-06T05:31:33.719Z,2.45
2022-09-06T05:32:35.493Z,2.28
2022-09-06T05:33:37.807Z,2.30
2022-09-06T05:34:39.527Z,2.55
2022-09-06T05:35:41.271Z,2.40
2022-09-06T05:36:43.054Z,2.38
2022-09-06T05:37:44.874Z,2.10
2022-09-06T05:38:46.630Z,2.20
2022-09-06T05:39:48.430Z,2.40
2022-09-06T05:40:50.583Z,2.75
2022-09-06T05:41:52.357Z,2.30
2022-09-06T05:42:54.180Z,2.03
2022-09-06T05:43:55.928Z,2.20
2022-09-06T05:44:57.834Z,2.35
2022-09-06T05:45:59.636Z,2.30
2022-09-06T05:47:01.671Z,2.60
2022-09-06T05:48:03.705Z,2.20
2022-09-06T05:49:08.061Z,2.03
2022-09-06T05:50:10.490Z,2.20
2022-09-06T05:51:13.561Z,2.28
2022-09-06T05:52:15.336Z,2.85
2022-09-06T05:53:17.053Z,3.00
2022-09-06T05:54:18.944Z,2.90
2022-09-06T05:55:20.673Z,2.83
2022-09-06T05:56:22.740Z,2.85
2022-09-06T05:57:24.631Z,2.75
2022-09-06T05:58:26.463Z,2.75
2022-09-06T05:59:28.314Z,2.83
2022-09-06T06:00:30.095Z,3.08
2022-09-06T06:01:31.935Z,3.00
2022-09-06T06:02:33.780Z,2.85
2022-09-06T06:03:35.598Z,3.30
2022-09-06T06:04:37.655Z,2.90
2022-09-06T06:05:39.411Z,3.00
2022-09-06T06:06:41.138Z,2.75
2022-09-06T06:07:43.048Z,2.85
2022-09-06T06:08:44.932Z,2.70
2022-09-06T06:09:46.683Z,3.03
2022-09-06T06:10:48.396Z,2.85
2022-09-06T06:11:50.095Z,2.40
2022-09-06T06:12:51.792Z,3.03
2022-09-06T06:13:55.051Z,2.85
2022-09-06T06:14:57.023Z,2.90
2022-09-06T06:15:58.766Z,2.60
2022-09-06T06:17:00.617Z,2.88
2022-09-06T06:18:02.394Z,2.50
2022-09-06T06:19:04.103Z,2.42
2022-09-06T06:20:06.351Z,2.75
2022-09-06T06:21:10.960Z,2.53
2022-09-06T06:22:12.737Z,3.10
2022-09-06T06:23:15.762Z,3.15
2022-09-06T06:24:17.486Z,2.85
2022-09-06T06:25:23.205Z,2.90
2022-09-06T06:26:26.629Z,2.70
2022-09-06T06:27:28.425Z,2.53
2022-09-06T06:28:30.199Z,2.70
2022-09-06T06:29:31.921Z,2.30
2022-09-06T06:30:33.680Z,2.85
2022-09-06T06:31:37.198Z,2.63
2022-09-06T06:32:38.971Z,2.85
2022-09-06T06:33:41.157Z,2.97
2022-09-06T06:34:42.923Z,2.90
2022-09-06T06:36:02.656Z,2.75
2022-09-06T06:37:04.453Z,2.70
2022-09-06T06:38:06.169Z,2.45
2022-09-06T06:39:08.794Z,2.95
2022-09-06T06:40:10.796Z,2.60
2022-09-06T06:41:15.417Z,2.80
2022-09-06T06:42:17.189Z,2.90
2022-09-06T06:43:18.934Z,3.05
2022-09-06T06:44:20.671Z,2.58
2022-09-06T06:45:22.435Z,2.72
2022-09-06T06:46:26.953Z,2.30
2022-09-06T06:47:28.670Z,2.75
2022-09-06T06:48:30.670Z,2.60
2022-09-06T06:49:32.780Z,2.25
2022-09-06T06:50:34.490Z,2.15
2022-09-06T06:51:39.640Z,2.60
2022-09-06T06:52:41.389Z,2.63
2022-09-06T06:53:47.723Z,2.30
2022-09-06T06:54:50.227Z,2.67
2022-09-06T06:55:52.013Z,2.47
2022-09-06T06:56:54.056Z,2.55
2022-09-06T06:57:56.021Z,2.38
2022-09-06T06:59:00.220Z,2.38
2022-09-06T07:00:04.570Z,2.40
2022-09-06T07:01:06.983Z,2.20
2022-09-06T07:02:08.882Z,2.30
2022-09-06T07:03:12.111Z,2.83
2022-09-06T07:04:14.388Z,2.30
2022-09-06T07:08:14.978Z,2.40
2022-09-06T07:09:18.662Z,2.80
2022-09-06T07:10:35.788Z,2.30
2022-09-06T07:11:38.490Z,2.75
2022-09-06T07:12:40.302Z,2.53
2022-09-06T07:13:42.355Z,2.50
2022-09-06T07:14:44.051Z,2.50
2022-09-06T07:15:45.760Z,2.70
2022-09-06T07:16:47.709Z,2.42
2022-09-06T07:17:49.577Z,2.42
2022-09-06T07:18:52.831Z,2.45
2022-09-06T07:22:41.040Z,2.50
2022-09-06T07:25:06.807Z,2.78
2022-09-06T07:26:13.612Z,2.30
2022-09-06T07:28:37.257Z,2.63
2022-09-06T07:29:38.979Z,2.40
2022-09-06T07:30:42.162Z,2.28
2022-09-06T07:33:05.657Z,2.10
2022-09-06T07:34:07.384Z,2.50
2022-09-06T07:35:09.462Z,2.55
2022-09-06T07:36:11.653Z,2.33
2022-09-06T07:37:13.439Z,2.30
2022-09-06T07:38:15.201Z,2.20
2022-09-06T07:39:16.913Z,2.50
2022-09-06T07:40:18.751Z,2.65
2022-09-06T07:41:21.138Z,3.15
2022-09-06T07:42:22.905Z,2.42
2022-09-06T07:43:25.566Z,2.42
2022-09-06T07:44:28.939Z,2.58
2022-09-06T07:45:30.727Z,2.35
2022-09-06T07:46:32.522Z,2.50
2022-09-06T07:48:56.025Z,2.15
2022-09-06T07:51:21.624Z,2.40
2022-09-06T07:53:57.907Z,2.53
2022-09-06T07:55:04.615Z,2.42
2022-09-06T07:56:08.621Z,2.20
2022-09-06T07:57:12.220Z,2.10
2022-09-06T07:58:14.059Z,2.55
2022-09-06T07:59:15.823Z,2.40
2022-09-06T08:00:18.718Z,2.55
2022-09-06T08:01:34.511Z,2.30
2022-09-06T08:02:36.226Z,2.30
2022-09-06T08:03:37.932Z,2.40
2022-09-06T08:04:41.305Z,2.30
2022-09-06T08:09:48.220Z,2.67
2022-09-06T08:10:51.191Z,2.38
2022-09-06T08:11:53.131Z,2.38
2022-09-06T08:12:57.750Z,3.28
2022-09-06T08:14:01.282Z,2.75
2022-09-06T08:15:03.005Z,2.60
2022-09-06T08:16:10.606Z,2.67
2022-09-06T08:17:12.642Z,2.38
2022-09-06T08:18:14.422Z,2.33
2022-09-06T08:19:17.111Z,2.47
2022-09-06T08:20:18.895Z,2.45
2022-09-06T08:21:21.214Z,2.35
2022-09-06T08:22:22.915Z,2.45
2022-09-06T08:23:24.676Z,2.40
2022-09-06T08:24:26.615Z,2.53
2022-09-06T08:25:28.329Z,3.80
2022-09-06T08:26:32.207Z,2.95
2022-09-06T08:27:34.339Z,2.67
2022-09-06T08:28:36.647Z,2.60
2022-09-06T08:29:39.993Z,2.83
2022-09-06T08:30:41.748Z,3.90
2022-09-06T08:31:45.033Z,2.50
2022-09-06T08:32:46.919Z,2.33
2022-09-06T08:33:48.658Z,2.70
2022-09-06T08:34:50.852Z,2.67
2022-09-06T08:35:59.332Z,2.50
2022-09-06T08:37:01.103Z,2.35
2022-09-06T08:38:02.808Z,2.30
2022-09-06T08:39:11.855Z,2.65
2022-09-06T08:40:21.434Z,3.10
2022-09-06T08:41:27.669Z,5.70
2022-09-06T08:42:31.521Z,7.43
2022-09-06T08:43:33.486Z,4.15
2022-09-06T08:45:00.784Z,2.67
2022-09-06T08:46:03.465Z,2.28
2022-09-06T08:47:07.981Z,2.45
2022-09-06T08:48:09.819Z,2.30
2022-09-06T08:49:12.421Z,2.40
2022-09-06T08:50:14.167Z,2.63
2022-09-06T08:51:46.884Z,2.55
2022-09-06T08:53:19.117Z,2.50
2022-09-06T08:54:58.281Z,2.58
2022-09-06T08:56:13.626Z,2.60
2022-09-06T08:57:40.456Z,2.90
2022-09-06T08:59:06.771Z,2.65
2022-09-06T09:00:12.607Z,2.40
2022-09-06T09:01:27.709Z,2.97
2022-09-06T09:02:41.869Z,2.72
2022-09-06T09:03:44.938Z,2.97
2022-09-06T09:04:56.241Z,2.58
2022-09-06T09:06:00.256Z,2.50
2022-09-06T09:07:33.111Z,2.60
2022-09-06T09:09:04.107Z,3.10
2022-09-06T09:10:40.678Z,2.70
2022-09-06T09:11:50.018Z,2.70
2022-09-06T09:12:51.758Z,2.72
2022-09-06T09:13:56.075Z,2.60
2022-09-06T09:15:05.581Z,3.00
2022-09-06T09:16:07.908Z,2.90
2022-09-06T09:17:20.555Z,2.75
2022-09-06T09:18:30.192Z,2.70
2022-09-06T09:19:36.747Z,3.35
2022-09-06T09:20:39.316Z,2.50
2022-09-06T09:21:41.151Z,2.70
2022-09-06T09:22:43.829Z,2.63
2022-09-06T09:23:54.118Z,2.67
2022-09-06T09:24:59.426Z,2.45
2022-09-06T09:26:09.903Z,2.70
2022-09-06T09:27:14.008Z,2.58
2022-09-06T09:28:19.106Z,2.80
2022-09-06T09:29:25.324Z,2.53
2022-09-06T09:30:56.816Z,2.70
2022-09-06T09:31:58.659Z,2.33
2022-09-06T09:33:00.686Z,2.47
2022-09-06T09:34:04.918Z,2.50
2022-09-06T09:35:27.421Z,2.63
2022-09-06T09:36:29.155Z,2.58
2022-09-06T09:37:46.997Z,2.47
2022-09-06T09:38:51.847Z,2.50
2022-09-06T09:39:55.906Z,2.50
2022-09-06T09:41:05.866Z,2.70
2022-09-06T09:42:09.377Z,2.92
2022-09-06T09:43:15.967Z,2.92
2022-09-06T09:44:19.961Z,2.50
2022-09-06T09:45:31.330Z,2.83
2022-09-06T09:46:39.278Z,3.10
2022-09-06T09:47:41.037Z,2.90
2022-09-06T09:49:07.702Z,2.50
2022-09-06T09:50:25.012Z,2.78
2022-09-06T09:51:27.814Z,2.65
2022-09-06T09:52:32.083Z,2.47
2022-09-06T09:53:33.844Z,2.58
2022-09-06T09:54:39.234Z,2.63
2022-09-06T09:55:42.563Z,2.42
2022-09-06T09:56:49.513Z,2.58
2022-09-06T09:57:54.359Z,2.67
2022-09-06T09:58:58.350Z,3.05
2022-09-06T10:00:06.609Z,2.70
2022-09-06T10:01:30.801Z,2.72
2022-09-06T10:02:40.737Z,3.10
2022-09-06T10:05:10.111Z,3.00
2022-09-06T10:07:44.064Z,3.00
2022-09-06T10:08:45.827Z,3.25
2022-09-06T10:09:50.171Z,2.45
2022-09-06T10:10:52.100Z,2.75
2022-09-06T10:11:58.290Z,2.88
2022-09-06T10:13:14.757Z,2.92
2022-09-06T10:14:28.021Z,3.47
2022-09-06T10:15:34.290Z,2.75
2022-09-06T10:16:45.800Z,2.60
2022-09-06T10:17:48.836Z,2.40
2022-09-06T10:18:53.114Z,3.05
2022-09-06T10:19:54.959Z,3.03
2022-09-06T10:21:06.164Z,2.97
2022-09-06T10:22:20.250Z,2.80
2022-09-06T10:24:57.267Z,2.33
2022-09-06T10:26:31.404Z,2.63
2022-09-06T10:27:33.461Z,2.50
2022-09-06T10:28:39.200Z,2.25
2022-09-06T10:29:40.908Z,1.95
2022-09-06T10:31:16.164Z,2.33
2022-09-06T10:33:09.929Z,2.00
2022-09-06T10:34:35.712Z,2.40
2022-09-06T10:35:38.490Z,2.20
2022-09-06T10:36:48.349Z,1.90
2022-09-06T10:38:01.845Z,1.92
2022-09-06T10:39:40.907Z,2.03
2022-09-06T10:40:51.321Z,2.00
2022-09-06T10:42:08.574Z,2.40
2022-09-06T10:43:18.612Z,2.10
2022-09-06T10:44:28.973Z,2.75
2022-09-06T10:45:46.712Z,2.05
2022-09-06T10:46:55.604Z,2.00
2022-09-06T10:48:14.942Z,1.90
2022-09-06T10:49:20.004Z,1.92
2022-09-06T10:50:29.044Z,2.05
2022-09-06T10:51:50.201Z,2.42
2022-09-06T10:52:53.686Z,2.17
2022-09-06T10:54:01.902Z,2.17
2022-09-06T10:55:05.854Z,2.00
2022-09-06T10:56:17.059Z,1.98
2022-09-06T11:00:17.347Z,1.85
2022-09-06T11:01:42.049Z,2.05
2022-09-06T11:04:31.565Z,2.30
2022-09-06T11:05:44.930Z,1.90
2022-09-06T11:06:52.805Z,1.90
2022-09-06T11:09:26.086Z,1.88
2022-09-06T11:10:31.434Z,1.95
2022-09-06T11:11:40.495Z,2.05
2022-09-06T11:13:06.735Z,2.05
2022-09-06T11:14:13.613Z,2.67
2022-09-06T11:15:18.212Z,2.03
2022-09-06T11:16:39.679Z,2.10
2022-09-06T11:17:59.793Z,2.10
2022-09-06T11:19:07.895Z,2.10
2022-09-06T11:21:05.298Z,2.05
2022-09-06T11:22:19.209Z,2.00
2022-09-06T11:23:23.711Z,1.63
2022-09-06T11:24:37.360Z,1.73
2022-09-06T11:25:51.317Z,1.70
2022-09-06T11:27:13.108Z,1.90
2022-09-06T11:28:30.725Z,2.00
2022-09-06T11:29:34.921Z,2.13
2022-09-06T11:30:37.273Z,1.80
2022-09-06T11:33:30.460Z,1.70
2022-09-06T11:34:35.350Z,1.75
2022-09-06T11:35:37.946Z,1.63
2022-09-06T11:36:45.445Z,1.48
2022-09-06T11:37:51.188Z,1.90
2022-09-06T11:39:02.054Z,1.73
2022-09-06T11:41:40.951Z,1.63
2022-09-06T11:42:45.591Z,1.63
2022-09-06T11:43:51.866Z,1.80
2022-09-06T11:45:21.289Z,1.80
2022-09-06T11:46:44.443Z,1.65
2022-09-06T11:47:48.623Z,2.03
2022-09-06T11:49:03.536Z,1.80
2022-09-06T11:50:20.765Z,1.95
2022-09-06T11:51:35.351Z,1.92
2022-09-06T11:52:55.634Z,1.90
2022-09-06T11:53:57.922Z,1.98
2022-09-06T11:54:59.757Z,1.73
2022-09-06T11:56:01.498Z,1.83
2022-09-06T11:57:16.809Z,1.77
2022-09-06T11:58:18.532Z,1.80
2022-09-06T11:59:34.108Z,1.70
2022-09-06T12:00:36.005Z,1.73
2022-09-06T12:01:41.028Z,1.98
2022-09-06T12:02:45.134Z,1.75
2022-09-06T12:04:06.594Z,1.70
2022-09-06T12:05:16.797Z,1.80
2022-09-06T12:06:27.936Z,1.80
2022-09-06T12:07:32.111Z,1.80
2022-09-06T12:08:34.512Z,1.83
2022-09-06T12:09:46.425Z,1.50
2022-09-06T12:11:01.104Z,1.67
2022-09-06T12:12:03.894Z,1.83
2022-09-06T12:13:39.808Z,1.60
2022-09-06T12:14:46.236Z,1.88
2022-09-06T12:15:55.421Z,1.75
2022-09-06T12:17:07.253Z,1.77
2022-09-06T12:18:09.057Z,1.40
2022-09-06T12:19:44.516Z,1.50
2022-09-06T12:20:49.287Z,1.50
2022-09-06T12:21:52.527Z,1.80
2022-09-06T12:22:55.030Z,1.70
2022-09-06T12:23:56.850Z,1.40
2022-09-06T12:25:26.457Z,1.63
2022-09-06T12:26:55.903Z,1.40
2022-09-06T12:28:00.481Z,1.60
2022-09-06T12:29:10.824Z,1.70
2022-09-06T12:30:14.205Z,1.50
2022-09-06T12:31:25.183Z,1.48
2022-09-06T12:33:48.210Z,1.60
2022-09-06T12:36:24.182Z,1.80
2022-09-06T12:37:37.281Z,1.63
2022-09-06T12:38:39.095Z,1.70
2022-09-06T12:39:58.414Z,1.70
2022-09-06T12:41:01.329Z,1.70
2022-09-06T12:42:06.765Z,1.67
2022-09-06T12:43:11.263Z,1.60
2022-09-06T12:44:15.916Z,1.80
2022-09-06T12:45:26.663Z,1.45
2022-09-06T12:46:31.100Z,1.80
2022-09-06T12:47:35.864Z,1.83
2022-09-06T12:48:41.511Z,1.80
2022-09-06T12:49:43.283Z,1.70
2022-09-06T12:50:45.053Z,1.65
2022-09-06T12:51:47.630Z,1.70
2022-09-06T12:52:56.907Z,1.70
2022-09-06T12:54:22.075Z,1.90
2022-09-06T12:55:33.891Z,1.80
2022-09-06T12:56:35.701Z,1.60
2022-09-06T12:57:37.449Z,1.80
2022-09-06T12:58:39.753Z,1.98
2022-09-06T13:00:07.679Z,1.85
2022-09-06T13:01:23.234Z,1.83
2022-09-06T13:02:31.856Z,1.90
2022-09-06T13:04:05.228Z,1.70
2022-09-06T13:05:12.009Z,1.65
2022-09-06T13:06:26.628Z,1.50
2022-09-06T13:07:29.465Z,1.80
2022-09-06T13:08:35.143Z,1.50
2022-09-06T13:09:39.761Z,1.75
2022-09-06T13:10:45.248Z,1.77
2022-09-06T13:11:51.639Z,1.67
2022-09-06T13:12:56.432Z,1.80
2022-09-06T13:13:58.983Z,1.88
2022-09-06T13:15:14.713Z,1.90
2022-09-06T13:16:23.001Z,1.90
2022-09-06T13:17:27.267Z,1.58
2022-09-06T13:18:38.095Z,1.70
2022-09-06T13:19:42.168Z,1.73
2022-09-06T13:20:43.989Z,1.58
2022-09-06T13:21:47.133Z,1.70
2022-09-06T13:22:51.030Z,1.60
2022-09-06T13:23:53.188Z,1.60
2022-09-06T13:24:56.642Z,1.35
2022-09-06T13:25:58.545Z,1.58
2022-09-06T13:27:00.295Z,1.80
2022-09-06T13:28:03.452Z,1.80
2022-09-06T13:29:22.174Z,1.83
2022-09-06T13:30:49.643Z,1.50
2022-09-06T13:31:57.105Z,2.00
2022-09-06T13:32:59.472Z,2.00
2022-09-06T13:34:01.258Z,1.63
2022-09-06T13:35:04.045Z,1.73
2022-09-06T13:36:11.930Z,1.60
2022-09-06T13:37:14.239Z,1.60
2022-09-06T13:38:31.244Z,1.55
2022-09-06T13:39:41.993Z,1.70
2022-09-06T13:41:09.650Z,2.03
2022-09-06T13:42:07.633Z,1.50
2022-09-06T13:43:12.420Z,1.50
2022-09-06T13:44:20.713Z,1.80
2022-09-06T13:45:28.574Z,1.90
2022-09-06T13:46:34.415Z,1.48
2022-09-06T13:47:36.178Z,1.80
2022-09-06T13:48:39.708Z,1.73
2022-09-06T13:49:41.641Z,1.90
2022-09-06T13:50:43.421Z,2.00
2022-09-06T13:51:45.177Z,1.95
2022-09-06T13:52:46.912Z,1.88
2022-09-06T13:53:49.123Z,2.17
2022-09-06T13:54:50.899Z,1.83
2022-09-06T13:55:53.051Z,1.90
2022-09-06T13:56:55.606Z,1.85
2022-09-06T13:57:57.319Z,1.90
2022-09-06T13:58:59.130Z,2.10
2022-09-06T14:00:00.983Z,1.75
2022-09-06T14:01:04.262Z,2.13
2022-09-06T14:02:10.051Z,1.88
2022-09-06T14:03:22.694Z,2.47
2022-09-06T14:04:25.619Z,2.03
2022-09-06T14:05:27.309Z,2.20
2022-09-06T14:06:30.674Z,1.92
2022-09-06T14:07:35.459Z,1.90
2022-09-06T14:08:56.240Z,2.30
2022-09-06T14:10:01.277Z,1.80
2022-09-06T14:11:03.023Z,1.80
2022-09-06T14:12:06.801Z,2.05
2022-09-06T14:13:08.736Z,2.10
2022-09-06T14:14:11.054Z,1.95
2022-09-06T14:15:13.492Z,1.77
2022-09-06T14:16:15.510Z,1.90
2022-09-06T14:17:17.905Z,2.03
2022-09-06T14:18:19.643Z,1.80
2022-09-06T14:19:21.421Z,1.90
2022-09-06T14:20:23.166Z,1.90
2022-09-06T14:21:24.971Z,1.90
2022-09-06T14:22:26.746Z,2.20
2022-09-06T14:23:28.658Z,2.20
2022-09-06T14:24:30.606Z,2.05
2022-09-06T14:25:35.827Z,1.90
2022-09-06T14:26:39.044Z,1.90
2022-09-06T14:27:40.883Z,2.10
2022-09-06T14:28:42.717Z,2.28
2022-09-06T14:29:44.471Z,1.90
2022-09-06T14:30:46.394Z,1.90
2022-09-06T14:31:49.125Z,2.20
2022-09-06T14:32:51.085Z,2.10
2022-09-06T14:33:54.430Z,2.15
2022-09-06T14:34:56.173Z,2.00
2022-09-06T14:35:57.890Z,2.08
2022-09-06T14:36:59.698Z,2.10
2022-09-06T14:38:01.612Z,2.17
2022-09-06T14:39:03.987Z,1.88
2022-09-06T14:40:06.509Z,1.92
2022-09-06T14:41:09.506Z,2.10
2022-09-06T14:42:11.551Z,2.10
2022-09-06T14:43:13.407Z,1.83
2022-09-06T14:44:15.208Z,2.20
2022-09-06T14:45:17.191Z,1.63
2022-09-06T14:46:20.672Z,2.15
2022-09-06T14:47:22.453Z,1.88
2022-09-06T14:48:30.323Z,2.40
2022-09-06T14:49:32.178Z,2.28
2022-09-06T14:50:34.509Z,2.10
2022-09-06T14:51:38.668Z,2.30
2022-09-06T14:52:40.785Z,2.13
2022-09-06T14:53:44.819Z,2.40
2022-09-06T14:54:46.707Z,2.20
2022-09-06T14:55:48.437Z,2.30
2022-09-06T14:56:50.476Z,2.30
2022-09-06T14:57:52.484Z,2.33
2022-09-06T14:58:57.553Z,2.10
2022-09-06T15:00:00.825Z,2.13
2022-09-06T15:01:13.807Z,2.00
2022-09-06T15:02:18.254Z,2.30
2022-09-06T15:03:20.060Z,2.10
2022-09-06T15:04:22.079Z,2.28
2022-09-06T15:05:23.882Z,2.35
2022-09-06T15:06:28.374Z,2.20
2022-09-06T15:07:31.830Z,2.13
2022-09-06T15:08:36.472Z,1.80
2022-09-06T15:09:38.180Z,2.00
2022-09-06T15:10:39.901Z,1.90
2022-09-06T15:11:46.116Z,2.30
2022-09-06T15:12:47.862Z,2.30
2022-09-06T15:13:49.792Z,2.25
2022-09-06T15:14:51.580Z,2.13
2022-09-06T15:15:54.893Z,2.25